TAF Text Data
IDs:
Format:
Raw Decoded Include METAR

Data at: 0010 UTC 14 May 2021

KIAD 132352Z 02007KT 10SM CLR 18/M01 A3021 RMK AO2 SLP230 T01781006 10211 20178 55000

KIAD 132320Z 1400/1506 33005KT P6SM FEW060 BKN120
  FM140300 33003KT P6SM FEW080
  FM141500 35005KT P6SM SCT060
  FM150000 25003KT P6SM FEW250